createdAt,value
2023-11-25T00:03:03.955Z,-2.28
2023-11-25T00:06:28.685Z,-2.35
2023-11-25T00:09:50.596Z,-2.29
2023-11-25T00:13:12.467Z,-2.49
2023-11-25T00:16:34.587Z,-2.32
2023-11-25T00:19:57.498Z,-2.34
2023-11-25T00:23:20.584Z,-2.36
2023-11-25T00:26:42.197Z,-2.34
2023-11-25T00:30:05.753Z,-2.34
2023-11-25T00:33:27.569Z,-2.36
2023-11-25T00:36:49.702Z,-2.36
2023-11-25T00:40:14.014Z,-2.37
2023-11-25T00:43:35.917Z,-2.44
2023-11-25T00:46:57.794Z,-2.45
2023-11-25T00:50:20.708Z,-2.38
2023-11-25T00:53:42.894Z,-2.38
2023-11-25T00:57:06.240Z,-2.40
2023-11-25T01:00:28.066Z,-2.37
2023-11-25T01:03:49.799Z,-2.38
2023-11-25T01:07:12.219Z,-2.43
2023-11-25T01:10:34.075Z,-2.54
2023-11-25T01:13:57.282Z,-2.40
2023-11-25T01:17:19.204Z,-2.38
2023-11-25T01:20:41.048Z,-2.37
2023-11-25T01:24:02.969Z,-2.38
2023-11-25T01:27:24.879Z,-2.42
2023-11-25T01:30:48.143Z,-2.42
2023-11-25T01:34:09.905Z,-2.42
2023-11-25T01:37:31.901Z,-2.45
2023-11-25T01:40:57.121Z,-2.44
2023-11-25T01:44:19.331Z,-2.44
2023-11-25T01:47:43.283Z,-2.51
2023-11-25T01:51:07.309Z,-2.46
2023-11-25T01:54:29.706Z,-2.48
2023-11-25T01:57:51.413Z,-2.51
2023-11-25T02:01:13.572Z,-2.52
2023-11-25T02:04:36.812Z,-2.53
2023-11-25T02:07:58.866Z,-2.54
2023-11-25T02:11:20.730Z,-2.56
2023-11-25T02:14:42.780Z,-2.57
2023-11-25T02:18:05.034Z,-2.55
2023-11-25T02:21:28.106Z,-2.57
2023-11-25T02:24:51.147Z,-2.58
2023-11-25T02:28:12.796Z,-2.64
2023-11-25T02:31:34.808Z,-2.62
2023-11-25T02:34:56.938Z,-2.58
2023-11-25T02:38:18.517Z,-2.67
2023-11-25T02:41:42.092Z,-2.61
2023-11-25T02:45:03.772Z,-2.61
2023-11-25T02:48:26.280Z,-2.71
2023-11-25T02:51:52.472Z,-2.62
2023-11-25T02:55:14.714Z,-2.64
2023-11-25T02:58:38.431Z,-2.65
2023-11-25T03:02:10.648Z,-2.66
2023-11-25T03:05:33.467Z,-2.65
2023-11-25T03:08:55.607Z,-2.67
2023-11-25T03:12:17.662Z,-2.67
2023-11-25T03:15:43.976Z,-2.65
2023-11-25T03:19:07.447Z,-2.65
2023-11-25T03:22:29.310Z,-2.64
2023-11-25T03:25:51.414Z,-2.66
2023-11-25T03:29:13.305Z,-2.68
2023-11-25T03:32:36.864Z,-2.81
2023-11-25T03:35:58.763Z,-2.71
2023-11-25T03:39:20.399Z,-2.75
2023-11-25T03:42:42.298Z,-2.75
2023-11-25T03:46:05.570Z,-2.73
2023-11-25T03:49:28.641Z,-2.76
2023-11-25T03:52:50.774Z,-2.78
2023-11-25T03:56:12.639Z,-2.74
2023-11-25T03:59:34.312Z,-2.72
2023-11-25T04:02:56.298Z,-2.71
2023-11-25T04:06:19.682Z,-2.72
2023-11-25T04:09:41.329Z,-2.77
2023-11-25T04:13:03.269Z,-2.68
2023-11-25T04:16:25.353Z,-2.74
2023-11-25T04:19:47.297Z,-2.68
2023-11-25T04:23:10.904Z,-2.69
2023-11-25T04:26:32.580Z,-2.68
2023-11-25T04:29:54.783Z,-2.68
2023-11-25T04:33:16.644Z,-2.72
2023-11-25T04:36:40.420Z,-2.84
2023-11-25T04:40:06.533Z,-2.78
2023-11-25T04:43:28.715Z,-2.79
2023-11-25T04:46:50.734Z,-2.79
2023-11-25T04:50:12.532Z,-2.80
2023-11-25T04:53:34.049Z,-2.87
2023-11-25T04:56:57.479Z,-2.89
2023-11-25T05:00:19.786Z,-2.91
2023-11-25T05:03:41.605Z,-2.97
2023-11-25T05:07:05.145Z,-3.04
2023-11-25T05:10:29.751Z,-3.07
2023-11-25T05:13:59.197Z,-3.10
2023-11-25T05:17:21.526Z,-3.11
2023-11-25T05:20:43.386Z,-3.18
2023-11-25T05:24:06.199Z,-3.16
2023-11-25T05:27:28.557Z,-3.18
2023-11-25T05:30:52.335Z,-3.19
2023-11-25T05:34:15.095Z,-3.20
2023-11-25T05:37:36.649Z,-3.23
2023-11-25T05:40:58.696Z,-3.29
2023-11-25T05:44:22.461Z,-3.28
2023-11-25T05:47:45.495Z,-3.33
2023-11-25T05:51:08.734Z,-3.33
2023-11-25T05:54:30.394Z,-3.36
2023-11-25T05:57:53.909Z,-3.33
2023-11-25T06:01:15.743Z,-3.33
2023-11-25T06:04:39.052Z,-3.36
2023-11-25T06:08:01.200Z,-3.35
2023-11-25T06:11:23.776Z,-3.35
2023-11-25T06:14:45.803Z,-3.43
2023-11-25T06:18:08.699Z,-3.37
2023-11-25T06:21:32.586Z,-3.40
2023-11-25T06:24:54.605Z,-3.41
2023-11-25T06:28:16.536Z,-3.44
2023-11-25T06:31:38.508Z,-3.40
2023-11-25T06:35:00.325Z,-3.44
2023-11-25T06:38:24.816Z,-3.38
2023-11-25T06:41:50.561Z,-3.37
2023-11-25T06:45:15.283Z,-3.41
2023-11-25T06:48:37.081Z,-3.36
2023-11-25T06:51:59.350Z,-3.36
2023-11-25T06:55:23.089Z,-3.32
2023-11-25T06:58:45.257Z,-3.30
2023-11-25T07:02:07.225Z,-3.27
2023-11-25T07:05:29.757Z,-3.26
2023-11-25T07:08:53.691Z,-3.27
2023-11-25T07:12:17.161Z,-3.25
2023-11-25T07:15:38.790Z,-3.25
2023-11-25T07:19:01.966Z,-3.24
2023-11-25T07:22:23.728Z,-3.26
2023-11-25T07:25:46.767Z,-3.25
2023-11-25T07:29:11.913Z,-3.30
2023-11-25T07:32:34.482Z,-3.27
2023-11-25T07:35:56.574Z,-3.24
2023-11-25T07:39:20.917Z,-3.30
2023-11-25T07:42:44.423Z,-3.35
2023-11-25T07:46:09.727Z,-3.42
2023-11-25T07:49:33.099Z,-3.52
2023-11-25T07:52:54.847Z,-3.51
2023-11-25T07:56:16.522Z,-3.20
2023-11-25T07:59:38.455Z,-3.07
2023-11-25T08:03:03.823Z,-3.06
2023-11-25T08:06:26.978Z,-3.24
2023-11-25T08:09:48.627Z,-3.33
2023-11-25T08:13:10.630Z,-3.43
2023-11-25T08:16:32.674Z,-3.48
2023-11-25T08:19:56.531Z,-3.69
2023-11-25T08:23:18.726Z,-3.64
2023-11-25T08:26:40.543Z,-3.66
2023-11-25T08:30:03.540Z,-3.73
2023-11-25T08:33:26.657Z,-3.83
2023-11-25T08:36:54.881Z,-3.86
2023-11-25T08:40:18.406Z,-3.83
2023-11-25T08:43:41.751Z,-3.79
2023-11-25T08:47:03.625Z,-3.85
2023-11-25T08:50:25.487Z,-3.79
2023-11-25T08:53:51.132Z,-3.88
2023-11-25T08:57:13.252Z,-3.82
2023-11-25T09:00:35.636Z,-3.76
2023-11-25T09:03:57.743Z,-3.87
2023-11-25T09:07:19.971Z,-3.84
2023-11-25T09:10:44.258Z,-3.91
2023-11-25T09:14:07.430Z,-3.89
2023-11-25T09:17:29.353Z,-3.95
2023-11-25T09:20:51.699Z,-3.88
2023-11-25T09:24:13.836Z,-3.89
2023-11-25T09:27:37.308Z,-3.88
2023-11-25T09:30:59.105Z,-3.87
2023-11-25T09:34:21.229Z,-3.85
2023-11-25T09:37:44.329Z,-3.79
2023-11-25T09:41:06.537Z,-3.76
2023-11-25T09:44:31.777Z,-3.73
2023-11-25T09:47:55.622Z,-3.71
2023-11-25T09:51:23.222Z,-3.69
2023-11-25T09:54:45.864Z,-3.62
2023-11-25T09:58:08.710Z,-3.57
2023-11-25T10:01:33.513Z,-3.51
2023-11-25T10:04:57.582Z,-3.46
2023-11-25T10:08:19.283Z,-3.48
2023-11-25T10:11:44.390Z,-3.44
2023-11-25T10:15:08.986Z,-3.47
2023-11-25T10:18:32.396Z,-3.47
2023-11-25T10:21:54.531Z,-3.53
2023-11-25T10:25:18.279Z,-3.53
2023-11-25T10:28:40.388Z,-3.56
2023-11-25T10:32:02.282Z,-3.63
2023-11-25T10:35:26.605Z,-3.65
2023-11-25T10:38:50.153Z,-3.63
2023-11-25T10:42:12.416Z,-3.58
2023-11-25T10:45:34.512Z,-3.54
2023-11-25T10:48:56.440Z,-3.55
2023-11-25T10:52:19.880Z,-3.61
2023-11-25T10:55:44.760Z,-3.57
2023-11-25T10:59:08.251Z,-3.64
2023-11-25T11:02:33.497Z,-3.63
2023-11-25T11:05:57.590Z,-3.67
2023-11-25T11:09:23.385Z,-3.60
2023-11-25T11:12:51.252Z,-3.57
2023-11-25T11:16:18.544Z,-3.61
2023-11-25T11:19:42.906Z,-3.67
2023-11-25T11:23:06.986Z,-3.77
2023-11-25T11:26:35.428Z,-3.98
2023-11-25T11:30:04.623Z,-3.82
2023-11-25T11:33:26.927Z,-3.84
2023-11-25T11:36:49.067Z,-3.91
2023-11-25T11:40:13.875Z,-3.95
2023-11-25T11:43:38.577Z,-3.93
2023-11-25T11:47:00.304Z,-3.92
2023-11-25T11:50:24.366Z,-3.97
2023-11-25T11:53:46.149Z,-4.01
2023-11-25T11:57:14.624Z,-4.04
2023-11-25T12:00:48.587Z,-4.09
2023-11-25T12:04:11.207Z,-4.01
2023-11-25T12:07:33.816Z,-4.02
2023-11-25T12:10:57.187Z,-4.01
2023-11-25T12:14:19.265Z,-4.05
2023-11-25T12:17:43.549Z,-4.07
2023-11-25T12:21:06.997Z,-4.03
2023-11-25T12:24:28.675Z,-4.12
2023-11-25T12:27:56.031Z,-4.08
2023-11-25T12:31:18.326Z,-4.22
2023-11-25T12:34:46.475Z,-4.25
2023-11-25T12:38:15.332Z,-4.44
2023-11-25T12:41:38.385Z,-4.51
2023-11-25T12:45:01.994Z,-4.36
2023-11-25T12:48:33.831Z,-4.37
2023-11-25T12:51:57.756Z,-4.39
2023-11-25T12:55:37.245Z,-4.41
2023-11-25T12:58:59.445Z,-4.42
2023-11-25T13:02:21.632Z,-4.48
2023-11-25T13:05:43.773Z,-4.50
2023-11-25T13:09:07.551Z,-4.48
2023-11-25T13:12:30.263Z,-4.56
2023-11-25T13:15:54.113Z,-4.53
2023-11-25T13:19:15.971Z,-4.53
2023-11-25T13:22:37.468Z,-4.53
2023-11-25T13:26:00.889Z,-4.55
2023-11-25T13:29:22.806Z,-4.65
2023-11-25T13:32:44.924Z,-4.62
2023-11-25T13:36:08.903Z,-4.64
2023-11-25T13:39:32.515Z,-4.65
2023-11-25T13:42:56.083Z,-4.65
2023-11-25T13:46:17.674Z,-4.66
2023-11-25T13:49:39.528Z,-4.65
2023-11-25T13:53:02.363Z,-4.66
2023-11-25T13:56:24.712Z,-4.66
2023-11-25T13:59:47.617Z,-4.68
2023-11-25T14:03:11.861Z,-4.69
2023-11-25T14:06:34.372Z,-4.71
2023-11-25T14:09:56.287Z,-4.75
2023-11-25T14:13:19.805Z,-4.75
2023-11-25T14:16:48.943Z,-4.75
2023-11-25T14:20:17.590Z,-4.80
2023-11-25T14:23:39.571Z,-4.80
2023-11-25T14:27:02.097Z,-4.82
2023-11-25T14:30:28.859Z,-4.85
2023-11-25T14:33:52.288Z,-4.86
2023-11-25T14:37:14.299Z,-4.90
2023-11-25T14:40:40.326Z,-4.97
2023-11-25T14:44:02.307Z,-5.02
2023-11-25T14:47:25.073Z,-4.97
2023-11-25T14:50:48.110Z,-5.01
2023-11-25T14:54:10.252Z,-5.01
2023-11-25T14:57:32.065Z,-5.04
2023-11-25T15:00:54.160Z,-5.03
2023-11-25T15:04:17.277Z,-5.05
2023-11-25T15:07:40.557Z,-5.07
2023-11-25T15:11:02.529Z,-5.10
2023-11-25T15:14:24.675Z,-5.08
2023-11-25T15:17:47.105Z,-5.10
2023-11-25T15:21:08.932Z,-5.03
2023-11-25T15:24:31.836Z,-4.99
2023-11-25T15:27:55.952Z,-5.02
2023-11-25T15:31:17.966Z,-5.06
2023-11-25T15:34:39.845Z,-5.06
2023-11-25T15:38:01.582Z,-5.06
2023-11-25T15:41:25.059Z,-5.10
2023-11-25T15:44:47.072Z,-5.11
2023-11-25T15:48:09.481Z,-5.34
2023-11-25T15:51:31.154Z,-5.15
2023-11-25T15:54:53.257Z,-5.14
2023-11-25T15:58:16.752Z,-5.18
2023-11-25T16:01:40.706Z,-5.20
2023-11-25T16:05:03.002Z,-5.20
2023-11-25T16:08:25.578Z,-5.28
2023-11-25T16:11:47.490Z,-5.30
2023-11-25T16:15:12.156Z,-5.28
2023-11-25T16:18:34.415Z,-5.25
2023-11-25T16:21:57.838Z,-5.27
2023-11-25T16:25:20.335Z,-5.25
2023-11-25T16:28:42.677Z,-5.25
2023-11-25T16:32:07.220Z,-5.24
2023-11-25T16:35:29.353Z,-5.26
2023-11-25T16:38:51.297Z,-5.24
2023-11-25T16:42:13.147Z,-5.34
2023-11-25T16:45:35.067Z,-5.28
2023-11-25T16:49:07.129Z,-5.30
2023-11-25T16:52:30.739Z,-5.30
2023-11-25T16:55:53.128Z,-5.39
2023-11-25T16:59:15.534Z,-5.46
2023-11-25T17:02:37.695Z,-5.41
2023-11-25T17:06:01.015Z,-5.42
2023-11-25T17:09:22.996Z,-5.42
2023-11-25T17:12:44.912Z,-5.47
2023-11-25T17:16:06.980Z,-5.54
2023-11-25T17:19:29.726Z,-5.52
2023-11-25T17:22:54.018Z,-5.55
2023-11-25T17:26:16.109Z,-5.57
2023-11-25T17:29:38.304Z,-5.57
2023-11-25T17:32:59.954Z,-5.62
2023-11-25T17:36:22.385Z,-5.61
2023-11-25T17:39:45.809Z,-5.64
2023-11-25T17:43:07.407Z,-5.64
2023-11-25T17:46:29.237Z,-5.65
2023-11-25T17:49:51.141Z,-5.74
2023-11-25T17:53:14.979Z,-5.77
2023-11-25T17:56:38.305Z,-5.84
2023-11-25T18:00:00.159Z,-5.85
2023-11-25T18:03:22.829Z,-5.90
2023-11-25T18:06:44.368Z,-5.95
2023-11-25T18:10:07.037Z,-5.99
2023-11-25T18:13:30.529Z,-6.08
2023-11-25T18:16:54.867Z,-6.07
2023-11-25T18:20:17.294Z,-6.22
2023-11-25T18:23:39.131Z,-6.07
2023-11-25T18:27:01.048Z,-6.10
2023-11-25T18:30:24.513Z,-6.16
2023-11-25T18:33:46.510Z,-6.14
2023-11-25T18:37:08.477Z,-6.18
2023-11-25T18:40:30.370Z,-6.20
2023-11-25T18:43:52.303Z,-6.30
2023-11-25T18:47:15.689Z,-6.40
2023-11-25T18:50:37.767Z,-6.40
2023-11-25T18:53:59.871Z,-6.45
2023-11-25T18:57:22.008Z,-6.51
2023-11-25T19:00:44.018Z,-6.59
2023-11-25T19:04:07.961Z,-6.66
2023-11-25T19:07:29.955Z,-6.67
2023-11-25T19:10:52.233Z,-6.76
2023-11-25T19:14:15.177Z,-6.79
2023-11-25T19:17:39.913Z,-6.84
2023-11-25T19:21:03.842Z,-6.92
2023-11-25T19:24:25.701Z,-6.98
2023-11-25T19:27:48.169Z,-7.03
2023-11-25T19:31:09.887Z,-7.07
2023-11-25T19:34:31.768Z,-7.16
2023-11-25T19:37:55.333Z,-7.20
2023-11-25T19:41:17.237Z,-7.26
2023-11-25T19:44:38.887Z,-7.30
2023-11-25T19:48:00.845Z,-7.32
2023-11-25T19:51:22.988Z,-7.40
2023-11-25T19:54:46.225Z,-7.37
2023-11-25T19:58:08.429Z,-7.46
2023-11-25T20:01:30.336Z,-7.61
2023-11-25T20:04:52.134Z,-7.61
2023-11-25T20:08:14.363Z,-7.73
2023-11-25T20:11:37.600Z,-7.76
2023-11-25T20:14:59.264Z,-7.80
2023-11-25T20:18:20.744Z,-7.89
2023-11-25T20:21:42.740Z,-7.92
2023-11-25T20:25:04.982Z,-7.96
2023-11-25T20:28:27.968Z,-7.96
2023-11-25T20:31:49.696Z,-8.02
2023-11-25T20:35:11.841Z,-7.92
2023-11-25T20:38:34.112Z,-7.90
2023-11-25T20:41:58.513Z,-7.82
2023-11-25T20:45:22.383Z,-7.75
2023-11-25T20:48:44.380Z,-7.69
2023-11-25T20:52:07.121Z,-7.74
2023-11-25T20:55:28.826Z,-7.60
2023-11-25T20:58:50.672Z,-7.52
2023-11-25T21:02:14.223Z,-7.46
2023-11-25T21:05:36.453Z,-7.41
2023-11-25T21:08:58.167Z,-7.39
2023-11-25T21:12:21.610Z,-7.32
2023-11-25T21:15:43.302Z,-7.25
2023-11-25T21:19:06.534Z,-7.21
2023-11-25T21:22:29.562Z,-7.18
2023-11-25T21:25:51.573Z,-7.12
2023-11-25T21:29:13.883Z,-7.09
2023-11-25T21:32:37.719Z,-7.04
2023-11-25T21:36:03.185Z,-7.01
2023-11-25T21:39:25.867Z,-7.02
2023-11-25T21:42:47.540Z,-7.01
2023-11-25T21:46:09.897Z,-6.99
2023-11-25T21:49:31.861Z,-6.96
2023-11-25T21:52:54.974Z,-6.97
2023-11-25T21:56:18.917Z,-6.98
2023-11-25T21:59:40.956Z,-6.96
2023-11-25T22:03:02.683Z,-6.93
2023-11-25T22:06:26.370Z,-6.93
2023-11-25T22:09:49.871Z,-6.91
2023-11-25T22:13:12.087Z,-6.93
2023-11-25T22:16:34.264Z,-6.95
2023-11-25T22:19:55.916Z,-6.98
2023-11-25T22:23:18.798Z,-6.95
2023-11-25T22:26:48.720Z,-6.94
2023-11-25T22:30:12.972Z,-6.93
2023-11-25T22:33:35.311Z,-7.01
2023-11-25T22:36:57.046Z,-6.94
2023-11-25T22:40:18.913Z,-6.95
2023-11-25T22:43:42.342Z,-7.02
2023-11-25T22:47:04.661Z,-7.04
2023-11-25T22:50:26.438Z,-7.08
2023-11-25T22:53:48.378Z,-7.26
2023-11-25T22:57:10.137Z,-7.10
2023-11-25T23:00:43.247Z,-7.22
2023-11-25T23:04:05.440Z,-7.11
2023-11-25T23:07:27.203Z,-7.16
2023-11-25T23:10:49.007Z,-7.08
2023-11-25T23:14:11.238Z,-7.12
2023-11-25T23:17:34.466Z,-7.09
2023-11-25T23:20:57.556Z,-7.09
2023-11-25T23:24:19.965Z,-7.14
2023-11-25T23:27:42.044Z,-7.11
2023-11-25T23:31:05.534Z,-7.11
2023-11-25T23:34:28.936Z,-7.11
2023-11-25T23:37:51.258Z,-7.25
2023-11-25T23:41:13.043Z,-7.20
2023-11-25T23:44:35.100Z,-7.21
2023-11-25T23:47:56.924Z,-7.21
2023-11-25T23:51:20.342Z,-7.25
2023-11-25T23:54:43.390Z,-7.23
2023-11-25T23:58:05.636Z,-7.27
